createdAt,value
2023-07-26T00:02:19.930Z,67.15
2023-07-26T00:04:46.339Z,67.14
2023-07-26T00:07:12.702Z,67.17
2023-07-26T00:09:39.008Z,67.62
2023-07-26T00:12:05.863Z,67.57
2023-07-26T00:14:32.355Z,68.49
2023-07-26T00:16:58.807Z,68.75
2023-07-26T00:19:25.306Z,68.68
2023-07-26T00:21:51.721Z,68.57
2023-07-26T00:24:18.066Z,68.41
2023-07-26T00:26:44.412Z,68.53
2023-07-26T00:29:10.811Z,68.87
2023-07-26T00:31:37.380Z,68.97
2023-07-26T00:34:03.868Z,68.99
2023-07-26T00:36:30.758Z,69.06
2023-07-26T00:38:57.430Z,69.52
2023-07-26T00:41:24.073Z,69.85
2023-07-26T00:43:50.517Z,69.63
2023-07-26T00:46:17.038Z,69.81
2023-07-26T00:48:43.728Z,69.84
2023-07-26T00:51:10.531Z,69.79
2023-07-26T00:53:37.302Z,69.78
2023-07-26T00:56:03.925Z,69.71
2023-07-26T00:58:30.513Z,69.72
2023-07-26T01:00:57.920Z,69.93
2023-07-26T01:03:24.353Z,69.71
2023-07-26T01:06:25.469Z,69.42
2023-07-26T01:09:03.401Z,69.06
2023-07-26T01:11:39.371Z,69.11
2023-07-26T01:14:18.198Z,68.83
2023-07-26T01:16:45.646Z,68.83
2023-07-26T01:19:12.040Z,68.83
2023-07-26T01:21:38.544Z,69.65
2023-07-26T01:24:05.269Z,69.38
2023-07-26T01:26:31.755Z,68.72
2023-07-26T01:28:58.151Z,68.93
2023-07-26T01:31:25.573Z,68.52
2023-07-26T01:33:52.953Z,68.34
2023-07-26T01:36:24.186Z,69.02
2023-07-26T01:38:52.236Z,68.77
2023-07-26T01:41:19.371Z,68.15
2023-07-26T01:43:45.860Z,67.65
2023-07-26T01:46:13.381Z,67.62
2023-07-26T01:48:40.850Z,67.49
2023-07-26T01:51:08.096Z,68.00
2023-07-26T01:53:34.940Z,68.55
2023-07-26T01:56:01.872Z,68.10
2023-07-26T01:58:28.406Z,68.47
2023-07-26T02:00:55.272Z,68.50
2023-07-26T02:03:22.311Z,68.88
2023-07-26T02:05:49.248Z,68.69
2023-07-26T02:08:18.233Z,68.33
2023-07-26T02:10:44.896Z,68.20
2023-07-26T02:13:11.403Z,68.00
2023-07-26T02:15:37.846Z,68.14
2023-07-26T02:18:04.267Z,68.53
2023-07-26T02:20:30.736Z,68.78
2023-07-26T02:22:57.879Z,68.67
2023-07-26T02:25:24.346Z,68.77
2023-07-26T02:27:51.214Z,68.04
2023-07-26T02:30:17.706Z,67.95
2023-07-26T02:32:44.092Z,68.09
2023-07-26T02:35:10.524Z,68.85
2023-07-26T02:37:36.961Z,69.18
2023-07-26T02:40:05.186Z,69.46
2023-07-26T02:42:31.671Z,69.44
2023-07-26T02:44:59.338Z,69.46
2023-07-26T02:47:25.775Z,69.45
2023-07-26T02:49:52.180Z,69.65
2023-07-26T02:52:18.614Z,69.33
2023-07-26T02:54:45.033Z,69.53
2023-07-26T02:57:11.481Z,69.69
2023-07-26T02:59:37.888Z,69.79
2023-07-26T03:02:04.514Z,69.55
2023-07-26T03:04:30.867Z,69.11
2023-07-26T03:06:57.248Z,69.21
2023-07-26T03:09:23.654Z,69.54
2023-07-26T03:11:49.995Z,69.96
2023-07-26T03:14:16.375Z,69.98
2023-07-26T03:16:44.721Z,70.12
2023-07-26T03:19:11.478Z,69.98
2023-07-26T03:21:38.001Z,70.14
2023-07-26T03:24:04.791Z,69.65
2023-07-26T03:26:31.359Z,69.68
2023-07-26T03:28:58.027Z,70.28
2023-07-26T03:31:24.374Z,70.51
2023-07-26T03:33:50.773Z,70.73
2023-07-26T03:36:17.296Z,70.86
2023-07-26T03:38:43.786Z,70.93
2023-07-26T03:41:10.092Z,70.88
2023-07-26T03:43:36.474Z,70.47
2023-07-26T03:46:03.404Z,70.93
2023-07-26T03:48:29.806Z,71.27
2023-07-26T03:50:56.197Z,71.11
2023-07-26T03:53:22.524Z,70.83
2023-07-26T03:55:48.922Z,71.16
2023-07-26T03:58:15.251Z,71.30
2023-07-26T04:00:41.609Z,70.93
2023-07-26T04:03:08.289Z,71.15
2023-07-26T04:05:35.148Z,71.32
2023-07-26T04:08:01.561Z,71.67
2023-07-26T04:10:28.654Z,71.61
2023-07-26T04:12:55.068Z,71.91
2023-07-26T04:15:21.378Z,71.56
2023-07-26T04:17:47.932Z,71.09
2023-07-26T04:20:14.363Z,70.90
2023-07-26T04:22:40.953Z,70.73
2023-07-26T04:25:07.812Z,71.10
2023-07-26T04:27:34.179Z,71.19
2023-07-26T04:30:00.492Z,70.79
2023-07-26T04:32:26.882Z,71.18
2023-07-26T04:34:53.250Z,71.05
2023-07-26T04:37:19.614Z,71.08
2023-07-26T04:39:46.807Z,70.79
2023-07-26T04:42:13.137Z,70.61
2023-07-26T04:44:39.498Z,70.55
2023-07-26T04:47:06.060Z,70.26
2023-07-26T04:49:32.473Z,70.58
2023-07-26T04:51:58.790Z,70.90
2023-07-26T04:54:25.084Z,70.22
2023-07-26T04:56:51.657Z,69.91
2023-07-26T04:59:17.965Z,70.08
2023-07-26T05:01:44.372Z,70.21
2023-07-26T05:04:10.846Z,70.11
2023-07-26T05:06:37.524Z,69.57
2023-07-26T05:09:05.616Z,69.33
2023-07-26T05:11:32.697Z,69.70
2023-07-26T05:13:59.388Z,69.36
2023-07-26T05:16:25.836Z,68.51
2023-07-26T05:18:53.716Z,67.69
2023-07-26T05:21:19.987Z,67.61
2023-07-26T05:23:46.743Z,67.07
2023-07-26T05:26:13.261Z,66.25
2023-07-26T05:28:42.100Z,65.21
2023-07-26T05:31:08.448Z,64.26
2023-07-26T05:33:34.870Z,63.87
2023-07-26T05:36:01.373Z,63.79
2023-07-26T05:38:28.050Z,63.64
2023-07-26T05:41:03.704Z,62.94
2023-07-26T05:43:30.090Z,61.30
2023-07-26T05:45:58.060Z,60.61
2023-07-26T05:48:24.406Z,60.62
2023-07-26T05:50:50.792Z,60.47
2023-07-26T05:53:17.160Z,59.20
2023-07-26T05:55:43.583Z,58.84
2023-07-26T05:58:09.918Z,58.60
2023-07-26T06:00:36.345Z,57.59
2023-07-26T06:03:02.896Z,56.19
2023-07-26T06:05:29.825Z,54.14
2023-07-26T06:07:56.084Z,53.13
2023-07-26T06:10:22.403Z,52.34
2023-07-26T06:12:48.752Z,52.12
2023-07-26T06:15:15.196Z,51.84
2023-07-26T06:17:41.811Z,52.10
2023-07-26T06:20:11.397Z,52.13
2023-07-26T06:22:37.786Z,51.55
2023-07-26T06:25:05.718Z,51.38
2023-07-26T06:27:32.247Z,51.34
2023-07-26T06:30:04.718Z,51.64
2023-07-26T06:32:42.269Z,52.08
2023-07-26T06:35:11.841Z,51.73
2023-07-26T06:37:38.252Z,51.94
2023-07-26T06:40:06.378Z,52.03
2023-07-26T06:42:33.431Z,50.93
2023-07-26T06:44:59.884Z,50.65
2023-07-26T06:47:26.267Z,50.01
2023-07-26T06:49:52.875Z,50.10
2023-07-26T06:52:19.204Z,50.39
2023-07-26T06:54:45.744Z,50.29
2023-07-26T06:57:12.261Z,49.88
2023-07-26T06:59:38.668Z,49.81
2023-07-26T07:02:08.460Z,49.74
2023-07-26T07:04:35.631Z,49.42
2023-07-26T07:07:01.973Z,49.40
2023-07-26T07:09:29.254Z,49.28
2023-07-26T07:11:55.592Z,49.62
2023-07-26T07:14:22.892Z,50.20
2023-07-26T07:16:49.186Z,51.08
2023-07-26T07:19:15.597Z,50.95
2023-07-26T07:21:42.666Z,51.64
2023-07-26T07:24:09.011Z,52.37
2023-07-26T07:26:35.345Z,52.64
2023-07-26T07:29:01.656Z,52.73
2023-07-26T07:31:28.169Z,53.15
2023-07-26T07:33:54.509Z,53.42
2023-07-26T07:36:20.860Z,53.73
2023-07-26T07:38:47.753Z,53.82
2023-07-26T07:41:15.023Z,53.02
2023-07-26T07:43:41.405Z,53.27
2023-07-26T07:46:07.790Z,53.55
2023-07-26T07:48:34.946Z,53.78
2023-07-26T07:51:01.445Z,53.44
2023-07-26T07:53:29.885Z,53.12
2023-07-26T07:55:57.415Z,52.87
2023-07-26T07:58:23.938Z,52.53
2023-07-26T08:00:50.415Z,51.96
2023-07-26T08:03:16.787Z,51.22
2023-07-26T08:05:43.327Z,50.34
2023-07-26T08:08:09.742Z,50.75
2023-07-26T08:10:39.155Z,49.98
2023-07-26T08:13:05.609Z,49.63
2023-07-26T08:15:33.408Z,50.04
2023-07-26T08:18:00.082Z,49.18
2023-07-26T08:20:26.600Z,48.43
2023-07-26T08:22:54.173Z,48.27
2023-07-26T08:25:24.783Z,47.22
2023-07-26T08:27:51.060Z,47.08
2023-07-26T08:30:17.857Z,46.22
2023-07-26T08:32:44.202Z,45.21
2023-07-26T08:35:10.889Z,44.43
2023-07-26T08:37:37.320Z,43.56
2023-07-26T08:40:06.329Z,42.53
2023-07-26T08:42:32.817Z,42.06
2023-07-26T08:45:00.093Z,41.83
2023-07-26T08:47:27.944Z,41.04
2023-07-26T08:49:54.500Z,40.72
2023-07-26T08:52:22.156Z,41.73
2023-07-26T08:54:48.915Z,42.01
2023-07-26T08:57:19.207Z,42.41
2023-07-26T08:59:45.710Z,43.44
2023-07-26T09:02:15.715Z,44.29
2023-07-26T09:04:42.268Z,44.02
2023-07-26T09:07:08.841Z,44.40
2023-07-26T09:09:36.530Z,44.20
2023-07-26T09:12:03.231Z,44.72
2023-07-26T09:14:31.891Z,45.63
2023-07-26T09:17:00.624Z,46.40
2023-07-26T09:19:32.752Z,46.69
2023-07-26T09:22:01.730Z,46.55
2023-07-26T09:24:35.939Z,46.82
2023-07-26T09:27:12.897Z,46.18
2023-07-26T09:29:41.673Z,46.68
2023-07-26T09:32:08.568Z,47.56
2023-07-26T09:34:35.416Z,48.26
2023-07-26T09:37:02.569Z,48.04
2023-07-26T09:39:33.603Z,47.41
2023-07-26T09:42:06.240Z,48.45
2023-07-26T09:44:33.186Z,47.95
2023-07-26T09:47:00.179Z,47.17
2023-07-26T09:49:27.646Z,47.62
2023-07-26T09:54:34.837Z,47.40
2023-07-26T09:57:06.530Z,47.12
2023-07-26T09:59:36.531Z,47.47
2023-07-26T10:02:08.658Z,47.52
2023-07-26T10:04:49.660Z,47.54
2023-07-26T10:07:16.235Z,47.77
2023-07-26T10:09:47.378Z,48.79
2023-07-26T10:12:14.802Z,49.97
2023-07-26T10:14:42.367Z,49.18
2023-07-26T10:17:13.404Z,49.78
2023-07-26T10:19:41.506Z,50.13
2023-07-26T10:22:08.696Z,50.72
2023-07-26T10:24:37.364Z,50.90
2023-07-26T10:27:05.149Z,49.69
2023-07-26T10:29:31.968Z,48.71
2023-07-26T10:32:05.229Z,49.00
2023-07-26T10:34:31.907Z,49.01
2023-07-26T10:36:59.365Z,47.45
2023-07-26T10:39:33.286Z,46.63
2023-07-26T10:42:00.176Z,45.46
2023-07-26T10:44:26.551Z,44.58
2023-07-26T10:47:02.022Z,44.57
2023-07-26T10:49:30.276Z,45.60
2023-07-26T10:52:02.917Z,46.34
2023-07-26T10:54:39.721Z,45.72
2023-07-26T10:57:27.436Z,45.93
2023-07-26T11:00:06.487Z,46.81
2023-07-26T11:02:45.485Z,45.72
2023-07-26T11:05:22.937Z,44.42
2023-07-26T11:08:08.285Z,44.27
2023-07-26T11:10:37.059Z,45.87
2023-07-26T11:13:06.165Z,46.38
2023-07-26T11:16:13.478Z,46.04
2023-07-26T11:18:21.576Z,47.27
2023-07-26T11:20:51.152Z,47.50
2023-07-26T11:23:24.202Z,45.72
2023-07-26T11:25:55.097Z,44.83
2023-07-26T11:28:21.861Z,45.03
2023-07-26T11:30:59.253Z,44.78
2023-07-26T11:33:34.472Z,44.85
2023-07-26T11:36:03.575Z,45.45
2023-07-26T11:38:30.189Z,45.72
2023-07-26T11:40:57.266Z,45.28
2023-07-26T11:43:28.404Z,45.36
2023-07-26T11:45:56.540Z,45.43
2023-07-26T11:48:24.962Z,46.22
2023-07-26T11:50:55.920Z,46.20
2023-07-26T11:53:41.630Z,46.97
2023-07-26T11:56:09.892Z,47.67
2023-07-26T11:58:36.779Z,48.25
2023-07-26T12:01:04.198Z,49.34
2023-07-26T12:03:30.926Z,50.88
2023-07-26T12:05:59.795Z,53.14
2023-07-26T12:08:29.809Z,55.36
2023-07-26T12:10:56.172Z,57.53
2023-07-26T12:13:24.227Z,59.96
2023-07-26T12:15:53.436Z,60.71
2023-07-26T12:18:24.671Z,62.40
2023-07-26T12:23:24.622Z,64.66
2023-07-26T12:26:00.440Z,65.48
2023-07-26T12:28:27.294Z,67.59
2023-07-26T12:30:55.461Z,70.20
2023-07-26T12:33:23.053Z,71.03
2023-07-26T12:35:52.526Z,73.07
2023-07-26T12:38:18.939Z,74.31
2023-07-26T12:40:46.933Z,75.13
2023-07-26T12:43:30.532Z,77.42
2023-07-26T12:46:03.954Z,79.65
2023-07-26T12:48:31.490Z,80.91
2023-07-26T12:50:57.893Z,81.29
2023-07-26T12:53:25.222Z,82.72
2023-07-26T12:55:51.833Z,84.82
2023-07-26T12:58:18.408Z,86.16
2023-07-26T13:00:44.939Z,87.46
2023-07-26T13:03:11.614Z,89.74
2023-07-26T13:05:38.379Z,90.95
2023-07-26T13:08:05.024Z,90.65
2023-07-26T13:10:31.496Z,91.13
2023-07-26T13:12:57.795Z,91.94
2023-07-26T13:15:24.262Z,93.51
2023-07-26T13:17:52.981Z,94.56
2023-07-26T13:20:20.251Z,95.13
2023-07-26T13:22:47.828Z,95.21
2023-07-26T13:25:14.428Z,95.37
2023-07-26T13:27:42.232Z,96.01
2023-07-26T13:30:09.514Z,96.79
2023-07-26T13:32:36.560Z,97.29
2023-07-26T13:35:07.004Z,97.38
2023-07-26T13:37:35.135Z,97.37
2023-07-26T13:40:05.088Z,96.50
2023-07-26T13:42:35.186Z,96.08
2023-07-26T13:45:06.760Z,97.24
2023-07-26T13:47:33.481Z,98.02
2023-07-26T13:49:59.894Z,97.35
2023-07-26T13:52:26.408Z,97.24
2023-07-26T13:54:52.886Z,97.46
2023-07-26T13:57:19.333Z,98.35
2023-07-26T13:59:45.680Z,97.99
2023-07-26T14:02:12.185Z,97.37
2023-07-26T14:04:38.588Z,97.77
2023-07-26T14:07:05.686Z,98.05
2023-07-26T14:09:32.300Z,97.59
2023-07-26T14:12:00.340Z,98.28
2023-07-26T14:14:27.404Z,99.01
2023-07-26T14:16:53.830Z,99.51
2023-07-26T14:19:20.181Z,97.76
2023-07-26T14:21:46.854Z,97.26
2023-07-26T14:24:13.240Z,97.67
2023-07-26T14:26:39.579Z,97.80
2023-07-26T14:29:06.610Z,96.26
2023-07-26T14:31:33.083Z,97.28
2023-07-26T14:33:59.597Z,97.86
2023-07-26T14:36:26.037Z,97.42
2023-07-26T14:38:52.443Z,97.14
2023-07-26T14:41:20.043Z,97.94
2023-07-26T14:43:47.567Z,97.64
2023-07-26T14:46:13.964Z,98.17
2023-07-26T14:48:41.069Z,98.61
2023-07-26T14:51:07.618Z,97.33
2023-07-26T14:53:34.011Z,96.83
2023-07-26T14:56:00.391Z,96.51
2023-07-26T14:58:26.750Z,96.78
2023-07-26T15:00:53.575Z,96.52
2023-07-26T15:03:22.358Z,97.37
2023-07-26T15:05:49.090Z,96.87
2023-07-26T15:08:16.228Z,96.28
2023-07-26T15:10:42.739Z,96.43
2023-07-26T15:13:09.238Z,96.68
2023-07-26T15:15:35.693Z,97.63
2023-07-26T15:18:02.363Z,97.45
2023-07-26T15:20:28.942Z,98.09
2023-07-26T15:22:55.332Z,97.79
2023-07-26T15:25:21.641Z,97.77
2023-07-26T15:27:48.053Z,98.35
2023-07-26T15:30:14.498Z,98.84
2023-07-26T15:32:43.178Z,99.23
2023-07-26T15:35:11.505Z,99.57
2023-07-26T15:37:43.773Z,99.95
2023-07-26T15:40:10.550Z,100.00
2023-07-26T15:42:36.962Z,100.00
2023-07-26T15:45:20.276Z,100.00
2023-07-26T15:47:47.346Z,100.00
2023-07-26T15:50:15.378Z,99.99
2023-07-26T15:52:42.392Z,99.96
2023-07-26T15:55:09.451Z,100.00
2023-07-26T15:57:36.099Z,100.00
2023-07-26T16:00:02.931Z,100.00
2023-07-26T16:03:02.962Z,100.00
2023-07-26T16:10:16.916Z,99.77
2023-07-26T16:12:43.689Z,100.00
2023-07-26T16:20:09.799Z,100.00
2023-07-26T16:22:36.104Z,100.00
2023-07-26T16:25:02.939Z,100.00
2023-07-26T16:27:32.224Z,100.00
2023-07-26T16:29:58.602Z,100.00
2023-07-26T16:32:24.912Z,100.00
2023-07-26T16:34:51.331Z,99.94
2023-07-26T16:37:17.822Z,100.00
2023-07-26T16:39:44.182Z,100.00
2023-07-26T16:42:10.723Z,100.00
2023-07-26T16:44:37.212Z,100.00
2023-07-26T16:47:09.401Z,100.00
2023-07-26T16:49:38.277Z,100.00
2023-07-26T16:52:05.153Z,100.00
2023-07-26T16:54:31.589Z,100.00
2023-07-26T16:56:58.056Z,100.00
2023-07-26T16:59:26.315Z,100.00
2023-07-26T17:01:52.822Z,100.00
2023-07-26T17:04:19.594Z,100.00
2023-07-26T17:06:46.268Z,100.00
2023-07-26T17:09:12.781Z,100.00
2023-07-26T17:11:39.195Z,100.00
2023-07-26T17:14:05.703Z,100.00
2023-07-26T17:16:32.703Z,100.00
2023-07-26T17:18:59.487Z,100.00
2023-07-26T17:21:25.928Z,100.00
2023-07-26T17:23:52.365Z,100.00
2023-07-26T17:26:18.826Z,100.00
2023-07-26T17:28:46.442Z,100.00
2023-07-26T17:31:13.140Z,100.00
2023-07-26T17:33:39.539Z,100.00
2023-07-26T17:36:14.497Z,100.00
2023-07-26T17:38:41.108Z,100.00
2023-07-26T17:41:07.993Z,100.00
2023-07-26T17:43:36.319Z,100.00
2023-07-26T17:46:03.662Z,100.00
2023-07-26T17:48:34.980Z,100.00
2023-07-26T17:51:01.341Z,100.00
2023-07-26T17:53:28.937Z,100.00
2023-07-26T17:55:55.330Z,100.00
2023-07-26T17:58:21.666Z,100.00
2023-07-26T18:00:48.051Z,100.00
2023-07-26T18:03:14.648Z,100.00
2023-07-26T18:05:42.066Z,100.00
2023-07-26T18:08:08.520Z,100.00
2023-07-26T18:10:36.580Z,100.00
2023-07-26T18:13:03.782Z,100.00
2023-07-26T18:15:30.635Z,100.00
2023-07-26T18:17:57.127Z,100.00
2023-07-26T18:20:23.635Z,100.00
2023-07-26T18:22:50.048Z,100.00
2023-07-26T18:25:16.376Z,100.00
2023-07-26T18:27:43.083Z,100.00
2023-07-26T18:30:10.106Z,100.00
2023-07-26T18:32:36.597Z,100.00
2023-07-26T18:35:03.048Z,100.00
2023-07-26T18:37:31.515Z,100.00
2023-07-26T18:39:57.909Z,100.00
2023-07-26T18:42:24.311Z,100.00
2023-07-26T18:44:50.923Z,100.00
2023-07-26T18:47:17.326Z,100.00
2023-07-26T18:49:43.749Z,100.00
2023-07-26T18:52:10.481Z,100.00
2023-07-26T18:54:36.969Z,100.00
2023-07-26T18:57:03.757Z,100.00
2023-07-26T18:59:30.385Z,100.00
2023-07-26T19:01:57.150Z,100.00
2023-07-26T19:04:23.604Z,100.00
2023-07-26T19:06:50.172Z,100.00
2023-07-26T19:09:16.703Z,100.00
2023-07-26T19:11:43.115Z,100.00
2023-07-26T19:14:09.461Z,100.00
2023-07-26T19:16:36.340Z,100.00
2023-07-26T19:19:03.029Z,100.00
2023-07-26T19:21:29.401Z,100.00
2023-07-26T19:23:57.254Z,100.00
2023-07-26T19:26:24.000Z,100.00
2023-07-26T19:28:51.526Z,100.00
2023-07-26T19:31:17.999Z,100.00
2023-07-26T19:33:44.603Z,100.00
2023-07-26T19:36:11.348Z,100.00
2023-07-26T19:38:38.438Z,100.00
2023-07-26T19:41:08.947Z,100.00
2023-07-26T19:43:36.879Z,100.00
2023-07-26T19:46:06.586Z,100.00
2023-07-26T19:48:33.033Z,100.00
2023-07-26T19:51:00.925Z,100.00
2023-07-26T19:53:27.813Z,100.00
2023-07-26T19:55:54.456Z,100.00
2023-07-26T19:58:21.100Z,100.00
2023-07-26T20:00:47.551Z,100.00
2023-07-26T20:03:14.018Z,100.00
2023-07-26T20:05:46.380Z,100.00
2023-07-26T20:08:14.639Z,100.00
2023-07-26T20:10:45.250Z,100.00
2023-07-26T20:13:15.577Z,100.00
2023-07-26T20:15:42.971Z,100.00
2023-07-26T20:18:10.984Z,100.00
2023-07-26T20:20:37.519Z,100.00
2023-07-26T20:23:04.962Z,100.00
2023-07-26T20:25:32.955Z,100.00
2023-07-26T20:27:59.763Z,100.00
2023-07-26T20:30:26.962Z,100.00
2023-07-26T20:32:53.518Z,100.00
2023-07-26T20:35:19.946Z,100.00
2023-07-26T20:37:46.467Z,100.00
2023-07-26T20:40:12.867Z,100.00
2023-07-26T20:42:39.222Z,100.00
2023-07-26T20:45:08.389Z,100.00
2023-07-26T20:47:34.768Z,100.00
2023-07-26T20:50:01.201Z,100.00
2023-07-26T20:52:27.806Z,100.00
2023-07-26T20:54:54.707Z,100.00
2023-07-26T20:57:21.134Z,100.00
2023-07-26T20:59:47.523Z,100.00
2023-07-26T21:02:14.084Z,100.00
2023-07-26T21:04:40.440Z,100.00
2023-07-26T21:07:06.814Z,100.00
2023-07-26T21:09:33.157Z,100.00
2023-07-26T21:12:00.938Z,100.00
2023-07-26T21:14:27.476Z,100.00
2023-07-26T21:16:54.028Z,100.00
2023-07-26T21:19:20.773Z,100.00
2023-07-26T21:21:47.220Z,100.00
2023-07-26T21:24:13.612Z,100.00
2023-07-26T21:26:39.969Z,100.00
2023-07-26T21:29:06.317Z,100.00
2023-07-26T21:31:32.861Z,100.00
2023-07-26T21:33:59.200Z,100.00
2023-07-26T21:36:25.626Z,100.00
2023-07-26T21:38:52.012Z,100.00
2023-07-26T21:41:18.480Z,100.00
2023-07-26T21:43:45.023Z,100.00
2023-07-26T21:46:11.424Z,100.00
2023-07-26T21:48:37.891Z,100.00
2023-07-26T21:51:04.297Z,100.00
2023-07-26T21:53:30.755Z,100.00
2023-07-26T21:55:57.181Z,100.00
2023-07-26T21:58:23.561Z,100.00
2023-07-26T22:00:51.686Z,100.00
2023-07-26T22:03:18.143Z,100.00
2023-07-26T22:05:48.742Z,100.00
2023-07-26T22:08:15.800Z,100.00
2023-07-26T22:10:42.201Z,100.00
2023-07-26T22:13:10.661Z,100.00
2023-07-26T22:15:37.384Z,100.00
2023-07-26T22:18:04.087Z,100.00
2023-07-26T22:20:30.527Z,100.00
2023-07-26T22:22:56.920Z,100.00
2023-07-26T22:25:23.423Z,100.00
2023-07-26T22:27:49.897Z,100.00
2023-07-26T22:30:16.459Z,100.00
2023-07-26T22:32:42.911Z,100.00
2023-07-26T22:35:09.682Z,100.00
2023-07-26T22:37:35.953Z,100.00
2023-07-26T22:40:02.490Z,100.00
2023-07-26T22:42:33.653Z,100.00
2023-07-26T22:45:00.114Z,100.00
2023-07-26T22:47:26.868Z,100.00
2023-07-26T22:49:54.658Z,100.00
2023-07-26T22:52:22.018Z,100.00
2023-07-26T22:54:49.202Z,100.00
2023-07-26T22:57:16.272Z,100.00
2023-07-26T22:59:48.821Z,100.00
2023-07-26T23:02:16.198Z,100.00
2023-07-26T23:04:43.125Z,100.00
2023-07-26T23:07:09.503Z,100.00
2023-07-26T23:09:35.864Z,100.00
2023-07-26T23:12:02.240Z,100.00
2023-07-26T23:14:28.525Z,100.00
2023-07-26T23:16:54.893Z,100.00
2023-07-26T23:19:21.223Z,100.00
2023-07-26T23:21:47.629Z,100.00
2023-07-26T23:24:14.071Z,100.00
2023-07-26T23:26:40.414Z,100.00
2023-07-26T23:29:06.880Z,100.00
2023-07-26T23:31:34.746Z,100.00
2023-07-26T23:34:01.364Z,100.00
2023-07-26T23:36:27.776Z,100.00
2023-07-26T23:38:54.098Z,100.00
2023-07-26T23:41:22.572Z,100.00
2023-07-26T23:43:48.951Z,100.00
2023-07-26T23:46:15.986Z,100.00
2023-07-26T23:48:44.943Z,100.00
2023-07-26T23:51:11.925Z,100.00
2023-07-26T23:53:38.460Z,100.00
2023-07-26T23:56:05.153Z,100.00
2023-07-26T23:58:31.473Z,100.00
